createdAt,value
2022-12-26T00:02:22.977Z,5.60
2022-12-26T00:05:07.663Z,5.84
2022-12-26T00:07:51.529Z,5.91
2022-12-26T00:10:35.340Z,5.87
2022-12-26T00:13:39.122Z,5.99
2022-12-26T00:16:23.551Z,5.95
2022-12-26T00:19:08.864Z,5.06
2022-12-26T00:21:53.117Z,6.09
2022-12-26T00:24:36.970Z,5.34
2022-12-26T00:27:20.896Z,5.97
2022-12-26T00:30:05.353Z,5.78
2022-12-26T00:32:49.299Z,5.88
2022-12-26T00:35:34.445Z,5.92
2022-12-26T00:38:18.257Z,5.70
2022-12-26T00:41:02.383Z,5.89
2022-12-26T00:43:46.392Z,5.82
2022-12-26T00:46:30.358Z,5.76
2022-12-26T00:49:14.312Z,5.70
2022-12-26T00:51:59.500Z,5.37
2022-12-26T00:54:43.567Z,5.61
2022-12-26T00:57:27.384Z,5.72
2022-12-26T01:00:12.249Z,5.81
2022-12-26T01:02:56.193Z,5.75
2022-12-26T01:05:43.096Z,5.81
2022-12-26T01:08:28.334Z,5.64
2022-12-26T01:11:14.681Z,5.74
2022-12-26T01:13:58.595Z,5.75
2022-12-26T07:13:52.847Z,4.87
2022-12-26T07:16:39.340Z,5.27
2022-12-26T07:19:23.476Z,5.12
2022-12-26T07:22:07.544Z,5.69
2022-12-26T07:24:51.517Z,5.82
2022-12-26T07:27:35.557Z,5.86
2022-12-26T07:30:19.781Z,6.06
2022-12-26T07:33:05.088Z,6.02
2022-12-26T07:35:49.133Z,6.47
2022-12-26T07:38:34.421Z,6.53
2022-12-26T07:41:35.933Z,6.63
2022-12-26T07:44:19.815Z,6.83
2022-12-26T07:47:03.792Z,7.13
2022-12-26T07:49:49.070Z,7.34
2022-12-26T07:52:32.863Z,7.44
2022-12-26T07:55:17.003Z,7.51
2022-12-26T07:58:00.710Z,7.59
2022-12-26T08:00:44.607Z,7.37
2022-12-26T08:03:28.472Z,7.37
2022-12-26T08:06:13.779Z,7.44
2022-12-26T08:08:57.568Z,7.41
2022-12-26T08:11:41.457Z,7.72
2022-12-26T08:14:25.763Z,7.76
2022-12-26T08:17:09.935Z,7.77
2022-12-26T08:19:53.867Z,7.97
2022-12-26T08:22:39.057Z,8.16
2022-12-26T08:25:22.828Z,8.19
2022-12-26T08:28:06.779Z,8.12
2022-12-26T08:30:50.964Z,8.25
2022-12-26T08:33:36.001Z,8.23
2022-12-26T08:36:19.825Z,8.34
2022-12-26T08:39:05.289Z,8.35
2022-12-26T08:41:49.136Z,8.29
2022-12-26T08:44:34.171Z,8.37
2022-12-26T08:47:18.002Z,8.29
2022-12-26T08:50:01.850Z,8.39
2022-12-26T08:52:46.788Z,8.47
2022-12-26T08:55:31.934Z,8.61
2022-12-26T08:58:16.003Z,8.80
2022-12-26T09:01:08.313Z,8.84
2022-12-26T09:03:53.856Z,8.93
2022-12-26T09:06:39.296Z,8.93
2022-12-26T09:09:23.355Z,9.00
2022-12-26T09:12:08.843Z,9.09
2022-12-26T09:14:52.773Z,9.20
2022-12-26T09:17:36.850Z,8.59
2022-12-26T09:20:20.708Z,8.58
2022-12-26T09:23:04.636Z,8.62
2022-12-26T09:25:48.359Z,7.86
2022-12-26T09:28:34.151Z,7.81
2022-12-26T09:31:21.611Z,8.29
2022-12-26T09:34:07.688Z,8.94
2022-12-26T09:36:51.808Z,8.76
2022-12-26T09:39:36.259Z,8.76
2022-12-26T09:42:29.675Z,9.14
2022-12-26T09:45:17.162Z,9.15
2022-12-26T09:48:07.769Z,9.10
2022-12-26T09:50:53.327Z,9.04
2022-12-26T09:53:41.976Z,9.31
2022-12-26T09:59:35.641Z,9.52
2022-12-26T10:02:23.648Z,9.58
2022-12-26T10:05:08.555Z,9.62
2022-12-26T10:07:59.452Z,9.35
2022-12-26T10:10:49.745Z,9.06
2022-12-26T10:13:41.125Z,9.38
2022-12-26T10:16:34.395Z,9.75
2022-12-26T10:19:33.065Z,9.64
2022-12-26T10:22:37.896Z,10.17
2022-12-26T10:25:26.353Z,10.22
2022-12-26T10:28:19.626Z,10.51
2022-12-26T10:31:07.559Z,10.63
2022-12-26T10:33:57.609Z,10.68
2022-12-26T10:36:47.183Z,10.86
2022-12-26T10:39:35.724Z,11.08
2022-12-26T10:42:25.704Z,10.80
2022-12-26T10:45:17.351Z,11.20
2022-12-26T10:48:01.171Z,11.14
2022-12-26T10:50:49.687Z,11.02
2022-12-26T10:53:35.582Z,11.06
2022-12-26T10:56:19.908Z,11.12
2022-12-26T10:59:05.913Z,11.18
2022-12-26T11:01:50.282Z,11.24
2022-12-26T11:07:41.644Z,11.37
2022-12-26T11:10:30.301Z,11.53
2022-12-26T11:13:20.511Z,11.54
2022-12-26T11:16:04.691Z,11.61
2022-12-26T11:18:50.751Z,11.60
2022-12-26T11:21:35.354Z,11.49
2022-12-26T11:24:20.867Z,11.82
2022-12-26T11:27:20.272Z,11.78
2022-12-26T11:30:28.857Z,11.79
2022-12-26T11:33:26.895Z,11.69
2022-12-26T11:36:18.349Z,11.24
2022-12-26T11:39:05.560Z,11.61
2022-12-26T11:41:49.690Z,11.53
2022-12-26T11:44:41.230Z,11.92
2022-12-26T11:47:28.335Z,11.67
2022-12-26T11:50:21.333Z,11.26
2022-12-26T11:53:08.123Z,11.74
2022-12-26T11:56:00.894Z,11.74
2022-12-26T11:58:44.851Z,11.48
2022-12-26T12:01:30.057Z,11.56
2022-12-26T12:04:14.135Z,11.30
2022-12-26T12:07:07.719Z,11.54
2022-12-26T12:10:03.031Z,11.36
2022-12-26T12:12:51.140Z,11.37
2022-12-26T12:15:44.456Z,11.56
2022-12-26T12:18:42.879Z,11.62
2022-12-26T12:21:38.204Z,11.72
2022-12-26T12:24:43.967Z,11.04
2022-12-26T12:27:31.646Z,11.18
2022-12-26T12:30:20.457Z,10.48
2022-12-26T12:33:27.228Z,10.23
2022-12-26T12:36:15.186Z,10.37
2022-12-26T12:39:08.097Z,10.64
2022-12-26T12:42:12.078Z,10.48
2022-12-26T12:45:10.663Z,9.82
2022-12-26T12:48:21.418Z,10.46
2022-12-26T12:51:17.609Z,10.55
2022-12-26T12:54:39.680Z,10.94
2022-12-26T12:57:28.549Z,10.55
2022-12-26T13:00:17.344Z,10.80
2022-12-26T13:03:10.521Z,10.75
2022-12-26T13:06:01.085Z,10.78
2022-12-26T13:08:50.372Z,10.72
2022-12-26T13:11:39.816Z,10.72
2022-12-26T13:14:28.251Z,10.38
2022-12-26T13:17:18.917Z,10.50
2022-12-26T13:20:06.774Z,10.73
2022-12-26T13:23:12.715Z,10.61
2022-12-26T13:26:07.534Z,10.62
2022-12-26T13:28:58.019Z,10.56
2022-12-26T13:31:43.036Z,10.27
2022-12-26T13:34:27.187Z,10.16
2022-12-26T13:37:49.635Z,10.40
2022-12-26T13:40:33.754Z,10.26
2022-12-26T13:43:41.536Z,10.20
2022-12-26T13:46:38.305Z,10.06
2022-12-26T13:49:36.027Z,10.08
2022-12-26T13:52:35.070Z,10.19
2022-12-26T13:55:43.286Z,10.05
2022-12-26T13:58:41.197Z,9.82
2022-12-26T14:01:40.305Z,9.54
2022-12-26T14:04:39.446Z,9.57
2022-12-26T14:07:31.402Z,9.61
2022-12-26T14:10:23.135Z,9.52
2022-12-26T14:13:30.953Z,9.08
2022-12-26T14:16:22.989Z,9.31
2022-12-26T14:19:18.206Z,9.42
2022-12-26T14:22:10.669Z,9.30
2022-12-26T14:25:06.032Z,9.10
2022-12-26T14:27:55.423Z,8.86
2022-12-26T14:30:56.214Z,9.06
2022-12-26T14:33:51.744Z,9.00
2022-12-26T14:36:42.124Z,8.87
2022-12-26T14:39:36.799Z,8.86
2022-12-26T14:42:40.827Z,8.81
2022-12-26T14:45:46.379Z,8.71
2022-12-26T14:48:48.894Z,8.60
2022-12-26T14:51:42.042Z,8.52
2022-12-26T14:54:50.863Z,8.37
2022-12-26T14:57:44.492Z,8.08
2022-12-26T15:00:34.497Z,8.22
2022-12-26T15:03:51.999Z,8.31
2022-12-26T15:07:16.818Z,8.28
2022-12-26T15:10:22.590Z,8.22
2022-12-26T15:13:54.397Z,8.05
2022-12-26T15:16:51.288Z,7.93
2022-12-26T15:20:14.073Z,7.93
2022-12-26T15:23:39.573Z,7.46
2022-12-26T15:26:49.872Z,7.53
2022-12-26T15:29:53.114Z,7.09
2022-12-26T15:32:43.755Z,7.04
2022-12-26T15:35:33.764Z,6.95
2022-12-26T15:38:33.339Z,6.94
2022-12-26T15:41:30.913Z,6.31
2022-12-26T15:44:30.122Z,7.05
2022-12-26T15:47:21.503Z,7.17
2022-12-26T15:50:18.858Z,7.19
2022-12-26T15:53:20.448Z,6.90
2022-12-26T15:56:49.482Z,6.82
2022-12-26T15:59:56.713Z,6.85
2022-12-26T16:02:49.383Z,7.05
2022-12-26T16:05:47.009Z,7.10
2022-12-26T16:09:16.951Z,6.67
2022-12-26T16:12:02.571Z,6.52
2022-12-26T16:14:48.761Z,6.56
2022-12-26T16:17:34.149Z,6.44
2022-12-26T16:20:40.685Z,6.75
2022-12-26T16:23:26.783Z,6.73
2022-12-26T16:26:18.522Z,6.71
2022-12-26T16:29:02.696Z,6.52
2022-12-26T16:31:49.325Z,6.59
2022-12-26T16:34:37.039Z,6.52
2022-12-26T16:37:24.613Z,6.65
2022-12-26T16:40:18.293Z,6.80
2022-12-26T16:43:05.626Z,6.62
2022-12-26T16:45:53.137Z,6.68
2022-12-26T16:48:38.575Z,6.77
2022-12-26T16:51:39.549Z,6.62
2022-12-26T16:54:38.108Z,6.45
2022-12-26T16:57:23.241Z,6.41
2022-12-26T17:00:08.121Z,6.06
2022-12-26T17:02:55.100Z,6.47
2022-12-26T17:05:43.983Z,5.75
2022-12-26T17:08:27.893Z,6.24
2022-12-26T17:11:13.302Z,6.14
2022-12-26T17:13:58.599Z,6.24
2022-12-26T17:16:42.459Z,6.20
2022-12-26T17:19:29.879Z,6.45
2022-12-26T17:22:30.605Z,6.43
2022-12-26T17:25:26.452Z,6.38
2022-12-26T17:28:25.050Z,6.26
2022-12-26T17:31:19.628Z,6.13
2022-12-26T17:34:07.928Z,6.25
2022-12-26T17:37:18.272Z,6.25
2022-12-26T17:40:03.807Z,6.15
2022-12-26T17:42:49.559Z,6.14
2022-12-26T17:45:33.403Z,6.15
2022-12-26T17:48:17.445Z,6.04
2022-12-26T17:51:04.454Z,5.95
2022-12-26T17:53:52.283Z,6.17
2022-12-26T17:56:38.061Z,5.96
2022-12-26T17:59:23.769Z,5.83
2022-12-26T18:02:07.684Z,5.85
2022-12-26T18:04:51.700Z,5.00
2022-12-26T18:07:35.668Z,5.91
2022-12-26T18:10:23.071Z,5.81
2022-12-26T18:13:17.187Z,5.82
2022-12-26T18:16:01.466Z,5.78
2022-12-26T18:18:47.397Z,5.90
2022-12-26T18:21:31.690Z,5.90
2022-12-26T18:24:15.656Z,5.58
2022-12-26T18:26:59.629Z,5.85
2022-12-26T18:29:44.978Z,5.87
2022-12-26T18:32:31.109Z,5.57
2022-12-26T18:35:15.944Z,5.70
2022-12-26T18:38:03.302Z,5.81
2022-12-26T18:40:50.284Z,5.81
2022-12-26T18:43:35.202Z,5.82
2022-12-26T18:46:24.070Z,5.86
2022-12-26T18:49:08.039Z,5.65
2022-12-26T18:51:52.685Z,5.83
2022-12-26T18:54:43.364Z,5.75
2022-12-26T18:57:28.927Z,5.69
2022-12-26T19:00:16.867Z,5.75
2022-12-26T19:03:03.888Z,5.55
2022-12-26T19:05:49.084Z,5.48
2022-12-26T19:08:33.462Z,5.67
2022-12-26T19:11:18.460Z,5.65
2022-12-26T19:14:03.609Z,5.62
2022-12-26T19:16:48.362Z,5.66
2022-12-26T19:19:34.424Z,5.52
2022-12-26T19:22:18.683Z,5.42
2022-12-26T19:25:03.451Z,5.56
2022-12-26T19:27:48.613Z,5.50
2022-12-26T19:30:38.490Z,5.47
2022-12-26T19:33:23.033Z,5.47
2022-12-26T19:36:09.669Z,5.67
2022-12-26T19:38:54.679Z,5.66
2022-12-26T19:41:38.645Z,5.67
2022-12-26T19:44:22.814Z,5.80
2022-12-26T19:47:12.714Z,5.65
2022-12-26T19:49:57.111Z,5.71
2022-12-26T19:52:42.932Z,5.42
2022-12-26T19:55:26.775Z,5.63
2022-12-26T19:58:10.680Z,5.53
2022-12-26T20:00:54.722Z,5.52
2022-12-26T20:03:38.743Z,5.37
2022-12-26T20:06:25.444Z,4.96
2022-12-26T20:09:13.405Z,5.24
2022-12-26T20:11:57.996Z,5.26
2022-12-26T20:14:42.036Z,5.45
2022-12-26T20:17:26.093Z,5.61
2022-12-26T20:20:10.878Z,5.81
2022-12-26T20:22:54.926Z,5.81
2022-12-26T20:25:41.329Z,5.99
2022-12-26T20:28:25.238Z,6.02
2022-12-26T20:31:13.154Z,5.90
2022-12-26T20:33:57.890Z,5.77
2022-12-26T20:36:42.750Z,5.93
2022-12-26T20:39:27.301Z,6.00
2022-12-26T20:42:15.795Z,5.78
2022-12-26T20:44:59.643Z,6.04
2022-12-26T20:47:43.533Z,5.90
2022-12-26T20:50:29.506Z,5.85
2022-12-26T20:53:14.089Z,5.78
2022-12-26T20:55:58.712Z,5.85
2022-12-26T20:58:44.203Z,5.78
2022-12-26T21:01:28.828Z,5.46
2022-12-26T21:04:18.387Z,5.74
2022-12-26T21:07:02.331Z,6.01
2022-12-26T21:09:46.861Z,6.04
2022-12-26T21:12:30.724Z,6.17
2022-12-26T21:15:16.346Z,6.17
2022-12-26T21:18:00.341Z,6.28
2022-12-26T21:20:46.073Z,6.15
2022-12-26T21:23:30.011Z,5.93
2022-12-26T21:26:13.964Z,6.01
2022-12-26T21:28:59.886Z,6.17
2022-12-26T21:31:45.431Z,6.02
2022-12-26T21:34:31.787Z,5.92
2022-12-26T21:37:33.174Z,5.27
2022-12-26T21:40:17.046Z,5.64
2022-12-26T21:43:00.869Z,5.67
2022-12-26T21:45:45.285Z,5.55
2022-12-26T21:48:30.550Z,5.89
2022-12-26T21:51:15.239Z,5.82
2022-12-26T21:54:22.941Z,5.91
2022-12-26T21:57:05.729Z,5.56
2022-12-26T21:59:58.746Z,5.79
2022-12-26T22:03:00.244Z,5.56
2022-12-26T22:05:45.523Z,5.83
2022-12-26T22:08:29.437Z,5.92
2022-12-26T22:11:35.883Z,5.78
2022-12-26T22:14:19.644Z,6.02
2022-12-26T22:17:03.428Z,6.12
2022-12-26T22:19:47.187Z,6.11
2022-12-26T22:22:33.138Z,6.06
2022-12-26T22:25:16.953Z,6.05
2022-12-26T22:28:01.390Z,5.82
2022-12-26T22:30:48.673Z,5.89
2022-12-26T22:33:32.849Z,6.24
2022-12-26T22:36:16.655Z,6.28
2022-12-26T22:39:02.315Z,6.06
2022-12-26T22:41:46.816Z,6.11
2022-12-26T22:44:30.532Z,6.13
2022-12-26T22:47:15.475Z,6.29
2022-12-26T22:49:59.385Z,6.24
2022-12-26T22:52:43.376Z,6.19
2022-12-26T22:55:28.551Z,6.04
2022-12-26T22:58:12.397Z,6.25
2022-12-26T23:00:56.982Z,6.12
2022-12-26T23:03:40.957Z,6.08
2022-12-26T23:06:27.118Z,5.65
2022-12-26T23:09:15.514Z,6.03
2022-12-26T23:12:18.477Z,5.95
2022-12-26T23:15:02.465Z,5.94
2022-12-26T23:18:08.083Z,5.94
2022-12-26T23:21:11.441Z,5.91
2022-12-26T23:23:55.767Z,5.81
2022-12-26T23:26:39.740Z,5.96
2022-12-26T23:29:43.316Z,6.11
2022-12-26T23:32:27.138Z,5.98
2022-12-26T23:35:12.635Z,6.22
2022-12-26T23:37:56.467Z,6.14
2022-12-26T23:40:40.327Z,5.86
2022-12-26T23:43:24.204Z,5.98
2022-12-26T23:46:11.819Z,6.00
2022-12-26T23:48:55.676Z,5.89
2022-12-26T23:51:39.472Z,5.96
2022-12-26T23:54:23.325Z,6.06
2022-12-26T23:57:07.256Z,5.96
2022-12-26T23:59:50.981Z,6.23
